sensor_id;sensor_type;location;lat;lon;timestamp;P1;durP1;ratioP1;P2;durP2;ratioP2
67063;SDS011;58476;48.072;11.970;2022-12-07T00:01:14;4.22;;;2.40;;
67063;SDS011;58476;48.072;11.970;2022-12-07T00:03:44;4.35;;;2.13;;
67063;SDS011;58476;48.072;11.970;2022-12-07T00:06:12;4.95;;;2.40;;
67063;SDS011;58476;48.072;11.970;2022-12-07T00:08:39;5.63;;;2.90;;
67063;SDS011;58476;48.072;11.970;2022-12-07T00:11:05;4.22;;;2.30;;
67063;SDS011;58476;48.072;11.970;2022-12-07T00:13:32;7.45;;;2.65;;
67063;SDS011;58476;48.072;11.970;2022-12-07T00:16:02;5.72;;;2.45;;
67063;SDS011;58476;48.072;11.970;2022-12-07T00:18:29;5.82;;;2.40;;
67063;SDS011;58476;48.072;11.970;2022-12-07T00:21:04;11.15;;;2.55;;
67063;SDS011;58476;48.072;11.970;2022-12-07T00:23:31;5.60;;;2.40;;
67063;SDS011;58476;48.072;11.970;2022-12-07T00:26:02;4.05;;;2.40;;
67063;SDS011;58476;48.072;11.970;2022-12-07T00:28:48;4.35;;;2.50;;
67063;SDS011;58476;48.072;11.970;2022-12-07T00:31:15;3.22;;;2.25;;
67063;SDS011;58476;48.072;11.970;2022-12-07T00:33:42;4.68;;;2.22;;
67063;SDS011;58476;48.072;11.970;2022-12-07T00:36:09;4.88;;;2.58;;
67063;SDS011;58476;48.072;11.970;2022-12-07T00:38:36;6.68;;;2.60;;
67063;SDS011;58476;48.072;11.970;2022-12-07T00:41:07;5.63;;;2.53;;
67063;SDS011;58476;48.072;11.970;2022-12-07T00:43:35;3.83;;;2.30;;
67063;SDS011;58476;48.072;11.970;2022-12-07T00:46:00;3.00;;;2.10;;
67063;SDS011;58476;48.072;11.970;2022-12-07T00:48:26;4.65;;;2.40;;
67063;SDS011;58476;48.072;11.970;2022-12-07T00:50:51;3.40;;;2.20;;
67063;SDS011;58476;48.072;11.970;2022-12-07T00:53:17;3.55;;;2.20;;
67063;SDS011;58476;48.072;11.970;2022-12-07T00:55:42;4.68;;;2.42;;
67063;SDS011;58476;48.072;11.970;2022-12-07T00:58:08;3.58;;;2.25;;
67063;SDS011;58476;48.072;11.970;2022-12-07T01:00:34;4.90;;;2.20;;
67063;SDS011;58476;48.072;11.970;2022-12-07T01:03:01;4.97;;;2.90;;
67063;SDS011;58476;48.072;11.970;2022-12-07T01:05:27;4.25;;;2.22;;
67063;SDS011;58476;48.072;11.970;2022-12-07T01:07:52;3.28;;;2.25;;
67063;SDS011;58476;48.072;11.970;2022-12-07T01:10:17;3.60;;;2.20;;
67063;SDS011;58476;48.072;11.970;2022-12-07T01:12:43;3.20;;;2.40;;
67063;SDS011;58476;48.072;11.970;2022-12-07T01:15:08;3.55;;;2.28;;
67063;SDS011;58476;48.072;11.970;2022-12-07T01:17:34;4.47;;;2.30;;
67063;SDS011;58476;48.072;11.970;2022-12-07T01:19:59;3.35;;;2.13;;
67063;SDS011;58476;48.072;11.970;2022-12-07T01:22:25;4.07;;;2.55;;
67063;SDS011;58476;48.072;11.970;2022-12-07T01:24:50;4.03;;;2.17;;
67063;SDS011;58476;48.072;11.970;2022-12-07T01:27:15;4.88;;;2.30;;
67063;SDS011;58476;48.072;11.970;2022-12-07T01:29:41;3.60;;;2.35;;
67063;SDS011;58476;48.072;11.970;2022-12-07T01:32:06;3.10;;;2.20;;
67063;SDS011;58476;48.072;11.970;2022-12-07T01:34:32;2.65;;;2.10;;
67063;SDS011;58476;48.072;11.970;2022-12-07T01:36:57;4.55;;;2.22;;
67063;SDS011;58476;48.072;11.970;2022-12-07T01:39:23;2.80;;;1.92;;
67063;SDS011;58476;48.072;11.970;2022-12-07T01:41:48;4.50;;;2.28;;
67063;SDS011;58476;48.072;11.970;2022-12-07T01:44:24;2.58;;;2.08;;
67063;SDS011;58476;48.072;11.970;2022-12-07T01:49:22;3.85;;;2.13;;
67063;SDS011;58476;48.072;11.970;2022-12-07T01:51:51;4.88;;;2.33;;
67063;SDS011;58476;48.072;11.970;2022-12-07T01:54:21;3.30;;;1.95;;
67063;SDS011;58476;48.072;11.970;2022-12-07T01:56:49;3.47;;;2.30;;
67063;SDS011;58476;48.072;11.970;2022-12-07T01:59:18;4.40;;;2.10;;
67063;SDS011;58476;48.072;11.970;2022-12-07T02:01:46;2.75;;;2.17;;
67063;SDS011;58476;48.072;11.970;2022-12-07T02:04:12;3.20;;;2.00;;
67063;SDS011;58476;48.072;11.970;2022-12-07T02:06:37;3.42;;;2.15;;
67063;SDS011;58476;48.072;11.970;2022-12-07T02:09:03;3.15;;;2.00;;
67063;SDS011;58476;48.072;11.970;2022-12-07T02:11:29;2.78;;;2.03;;
67063;SDS011;58476;48.072;11.970;2022-12-07T02:13:55;4.00;;;2.25;;
67063;SDS011;58476;48.072;11.970;2022-12-07T02:22:25;4.82;;;2.10;;
67063;SDS011;58476;48.072;11.970;2022-12-07T02:25:36;3.00;;;2.20;;
67063;SDS011;58476;48.072;11.970;2022-12-07T02:28:08;2.28;;;1.88;;
67063;SDS011;58476;48.072;11.970;2022-12-07T02:30:45;2.28;;;2.03;;
67063;SDS011;58476;48.072;11.970;2022-12-07T02:33:29;3.95;;;2.15;;
67063;SDS011;58476;48.072;11.970;2022-12-07T02:38:31;3.25;;;2.10;;
67063;SDS011;58476;48.072;11.970;2022-12-07T02:41:09;3.33;;;2.20;;
67063;SDS011;58476;48.072;11.970;2022-12-07T02:44:09;2.58;;;2.00;;
67063;SDS011;58476;48.072;11.970;2022-12-07T02:46:38;2.88;;;1.92;;
67063;SDS011;58476;48.072;11.970;2022-12-07T02:49:07;3.63;;;2.08;;
67063;SDS011;58476;48.072;11.970;2022-12-07T02:51:34;3.47;;;2.00;;
67063;SDS011;58476;48.072;11.970;2022-12-07T03:04:45;2.55;;;2.10;;
67063;SDS011;58476;48.072;11.970;2022-12-07T03:07:34;2.47;;;1.93;;
67063;SDS011;58476;48.072;11.970;2022-12-07T03:12:45;3.13;;;2.10;;
67063;SDS011;58476;48.072;11.970;2022-12-07T03:18:38;3.00;;;2.20;;
67063;SDS011;58476;48.072;11.970;2022-12-07T03:21:15;3.53;;;2.10;;
67063;SDS011;58476;48.072;11.970;2022-12-07T03:23:45;2.75;;;2.10;;
67063;SDS011;58476;48.072;11.970;2022-12-07T03:26:15;2.85;;;2.00;;
67063;SDS011;58476;48.072;11.970;2022-12-07T03:28:45;3.08;;;2.00;;
67063;SDS011;58476;48.072;11.970;2022-12-07T03:31:25;2.45;;;1.90;;
67063;SDS011;58476;48.072;11.970;2022-12-07T03:36:35;2.40;;;2.17;;
67063;SDS011;58476;48.072;11.970;2022-12-07T03:41:57;2.65;;;1.98;;
67063;SDS011;58476;48.072;11.970;2022-12-07T03:44:26;2.72;;;2.15;;
67063;SDS011;58476;48.072;11.970;2022-12-07T03:55:11;2.10;;;1.90;;
67063;SDS011;58476;48.072;11.970;2022-12-07T03:57:43;2.50;;;2.05;;
67063;SDS011;58476;48.072;11.970;2022-12-07T04:00:12;2.45;;;2.08;;
67063;SDS011;58476;48.072;11.970;2022-12-07T04:02:38;2.78;;;1.92;;
67063;SDS011;58476;48.072;11.970;2022-12-07T04:05:05;2.22;;;1.88;;
67063;SDS011;58476;48.072;11.970;2022-12-07T04:07:30;2.10;;;1.85;;
67063;SDS011;58476;48.072;11.970;2022-12-07T04:09:56;2.50;;;2.10;;
67063;SDS011;58476;48.072;11.970;2022-12-07T04:12:21;2.85;;;2.20;;
67063;SDS011;58476;48.072;11.970;2022-12-07T04:14:47;2.20;;;2.00;;
67063;SDS011;58476;48.072;11.970;2022-12-07T04:17:12;2.63;;;2.10;;
67063;SDS011;58476;48.072;11.970;2022-12-07T04:19:38;2.40;;;2.00;;
67063;SDS011;58476;48.072;11.970;2022-12-07T04:22:04;2.58;;;1.90;;
67063;SDS011;58476;48.072;11.970;2022-12-07T04:24:29;2.28;;;2.00;;
67063;SDS011;58476;48.072;11.970;2022-12-07T04:26:55;4.10;;;2.10;;
67063;SDS011;58476;48.072;11.970;2022-12-07T04:29:20;2.20;;;1.75;;
67063;SDS011;58476;48.072;11.970;2022-12-07T04:31:46;2.15;;;1.95;;
67063;SDS011;58476;48.072;11.970;2022-12-07T04:34:12;2.78;;;2.10;;
67063;SDS011;58476;48.072;11.970;2022-12-07T04:36:38;3.00;;;2.00;;
67063;SDS011;58476;48.072;11.970;2022-12-07T04:39:04;4.57;;;1.95;;
67063;SDS011;58476;48.072;11.970;2022-12-07T04:41:31;2.47;;;1.88;;
67063;SDS011;58476;48.072;11.970;2022-12-07T04:43:58;2.72;;;2.10;;
67063;SDS011;58476;48.072;11.970;2022-12-07T04:46:25;2.55;;;1.90;;
67063;SDS011;58476;48.072;11.970;2022-12-07T04:48:52;2.15;;;1.90;;
67063;SDS011;58476;48.072;11.970;2022-12-07T04:51:25;3.25;;;2.00;;
67063;SDS011;58476;48.072;11.970;2022-12-07T04:53:52;2.70;;;2.10;;
67063;SDS011;58476;48.072;11.970;2022-12-07T04:56:17;2.70;;;2.15;;
67063;SDS011;58476;48.072;11.970;2022-12-07T04:58:43;2.70;;;2.08;;
67063;SDS011;58476;48.072;11.970;2022-12-07T05:01:10;4.13;;;2.00;;
67063;SDS011;58476;48.072;11.970;2022-12-07T05:03:36;2.10;;;1.90;;
67063;SDS011;58476;48.072;11.970;2022-12-07T05:06:02;2.80;;;2.00;;
67063;SDS011;58476;48.072;11.970;2022-12-07T05:08:27;4.13;;;1.90;;
67063;SDS011;58476;48.072;11.970;2022-12-07T05:10:53;2.10;;;1.90;;
67063;SDS011;58476;48.072;11.970;2022-12-07T05:13:18;3.30;;;2.38;;
67063;SDS011;58476;48.072;11.970;2022-12-07T05:15:44;4.28;;;2.13;;
67063;SDS011;58476;48.072;11.970;2022-12-07T05:18:10;2.65;;;2.13;;
67063;SDS011;58476;48.072;11.970;2022-12-07T05:20:36;6.97;;;2.40;;
67063;SDS011;58476;48.072;11.970;2022-12-07T05:23:01;2.42;;;2.00;;
67063;SDS011;58476;48.072;11.970;2022-12-07T05:25:27;4.40;;;2.35;;
67063;SDS011;58476;48.072;11.970;2022-12-07T05:27:52;3.53;;;2.22;;
67063;SDS011;58476;48.072;11.970;2022-12-07T05:30:20;4.25;;;2.40;;
67063;SDS011;58476;48.072;11.970;2022-12-07T05:32:45;5.15;;;2.38;;
67063;SDS011;58476;48.072;11.970;2022-12-07T05:35:10;5.25;;;2.50;;
67063;SDS011;58476;48.072;11.970;2022-12-07T05:37:36;8.93;;;2.35;;
67063;SDS011;58476;48.072;11.970;2022-12-07T05:40:01;5.03;;;2.65;;
67063;SDS011;58476;48.072;11.970;2022-12-07T05:42:27;6.85;;;3.00;;
67063;SDS011;58476;48.072;11.970;2022-12-07T05:44:52;4.88;;;2.30;;
67063;SDS011;58476;48.072;11.970;2022-12-07T05:47:18;6.35;;;2.70;;
67063;SDS011;58476;48.072;11.970;2022-12-07T05:49:43;11.38;;;3.85;;
67063;SDS011;58476;48.072;11.970;2022-12-07T05:52:09;13.48;;;4.20;;
67063;SDS011;58476;48.072;11.970;2022-12-07T05:54:34;10.50;;;2.97;;
67063;SDS011;58476;48.072;11.970;2022-12-07T05:57:00;13.35;;;4.50;;
67063;SDS011;58476;48.072;11.970;2022-12-07T05:59:25;10.40;;;3.55;;
67063;SDS011;58476;48.072;11.970;2022-12-07T06:01:54;9.13;;;3.30;;
67063;SDS011;58476;48.072;11.970;2022-12-07T06:04:27;31.80;;;5.57;;
67063;SDS011;58476;48.072;11.970;2022-12-07T06:06:54;16.90;;;3.50;;
67063;SDS011;58476;48.072;11.970;2022-12-07T06:09:20;16.05;;;3.72;;
67063;SDS011;58476;48.072;11.970;2022-12-07T06:11:47;19.90;;;4.68;;
67063;SDS011;58476;48.072;11.970;2022-12-07T06:14:13;20.85;;;4.30;;
67063;SDS011;58476;48.072;11.970;2022-12-07T06:16:38;31.27;;;5.72;;
67063;SDS011;58476;48.072;11.970;2022-12-07T06:19:04;18.48;;;4.40;;
67063;SDS011;58476;48.072;11.970;2022-12-07T06:21:29;15.52;;;3.92;;
67063;SDS011;58476;48.072;11.970;2022-12-07T06:23:54;9.77;;;3.50;;
67063;SDS011;58476;48.072;11.970;2022-12-07T06:26:20;11.27;;;3.25;;
67063;SDS011;58476;48.072;11.970;2022-12-07T06:28:46;12.13;;;3.55;;
67063;SDS011;58476;48.072;11.970;2022-12-07T06:31:12;7.43;;;3.30;;
67063;SDS011;58476;48.072;11.970;2022-12-07T06:33:37;9.25;;;3.15;;
67063;SDS011;58476;48.072;11.970;2022-12-07T06:36:03;7.00;;;3.25;;
67063;SDS011;58476;48.072;11.970;2022-12-07T06:38:28;15.63;;;3.90;;
67063;SDS011;58476;48.072;11.970;2022-12-07T06:40:53;10.45;;;3.75;;
67063;SDS011;58476;48.072;11.970;2022-12-07T06:43:19;8.70;;;3.17;;
67063;SDS011;58476;48.072;11.970;2022-12-07T06:45:44;11.13;;;4.30;;
67063;SDS011;58476;48.072;11.970;2022-12-07T06:48:09;10.95;;;3.63;;
67063;SDS011;58476;48.072;11.970;2022-12-07T06:50:35;16.17;;;4.47;;
67063;SDS011;58476;48.072;11.970;2022-12-07T06:53:00;12.80;;;4.00;;
67063;SDS011;58476;48.072;11.970;2022-12-07T06:55:26;12.95;;;4.32;;
67063;SDS011;58476;48.072;11.970;2022-12-07T06:57:51;16.05;;;5.40;;
67063;SDS011;58476;48.072;11.970;2022-12-07T07:00:16;12.65;;;4.60;;
67063;SDS011;58476;48.072;11.970;2022-12-07T07:02:42;12.05;;;4.25;;
67063;SDS011;58476;48.072;11.970;2022-12-07T07:05:08;9.57;;;3.63;;
67063;SDS011;58476;48.072;11.970;2022-12-07T07:07:33;10.95;;;3.88;;
67063;SDS011;58476;48.072;11.970;2022-12-07T07:09:58;10.88;;;4.05;;
67063;SDS011;58476;48.072;11.970;2022-12-07T07:12:24;14.13;;;5.18;;
67063;SDS011;58476;48.072;11.970;2022-12-07T07:14:49;10.85;;;3.92;;
67063;SDS011;58476;48.072;11.970;2022-12-07T07:17:14;10.77;;;4.22;;
67063;SDS011;58476;48.072;11.970;2022-12-07T07:19:40;13.82;;;3.65;;
67063;SDS011;58476;48.072;11.970;2022-12-07T07:22:05;12.82;;;4.35;;
67063;SDS011;58476;48.072;11.970;2022-12-07T07:24:31;9.73;;;3.47;;
67063;SDS011;58476;48.072;11.970;2022-12-07T07:26:56;13.07;;;3.63;;
67063;SDS011;58476;48.072;11.970;2022-12-07T07:29:21;23.77;;;4.35;;
67063;SDS011;58476;48.072;11.970;2022-12-07T07:31:47;10.05;;;3.90;;
67063;SDS011;58476;48.072;11.970;2022-12-07T07:34:12;14.75;;;3.65;;
67063;SDS011;58476;48.072;11.970;2022-12-07T07:36:38;7.80;;;3.33;;
67063;SDS011;58476;48.072;11.970;2022-12-07T07:39:03;14.13;;;3.78;;
67063;SDS011;58476;48.072;11.970;2022-12-07T07:41:29;10.25;;;3.55;;
67063;SDS011;58476;48.072;11.970;2022-12-07T07:43:54;13.18;;;3.60;;
67063;SDS011;58476;48.072;11.970;2022-12-07T07:46:20;12.27;;;3.40;;
67063;SDS011;58476;48.072;11.970;2022-12-07T07:48:45;10.32;;;3.35;;
67063;SDS011;58476;48.072;11.970;2022-12-07T07:51:10;11.93;;;3.30;;
67063;SDS011;58476;48.072;11.970;2022-12-07T07:53:36;7.57;;;3.05;;
67063;SDS011;58476;48.072;11.970;2022-12-07T07:56:01;13.10;;;3.25;;
67063;SDS011;58476;48.072;11.970;2022-12-07T07:58:27;13.85;;;4.75;;
67063;SDS011;58476;48.072;11.970;2022-12-07T08:00:52;12.10;;;4.50;;
67063;SDS011;58476;48.072;11.970;2022-12-07T08:03:17;11.18;;;3.47;;
67063;SDS011;58476;48.072;11.970;2022-12-07T08:05:43;10.35;;;3.17;;
67063;SDS011;58476;48.072;11.970;2022-12-07T08:08:08;13.82;;;4.95;;
67063;SDS011;58476;48.072;11.970;2022-12-07T08:10:34;15.68;;;3.20;;
67063;SDS011;58476;48.072;11.970;2022-12-07T08:12:59;5.65;;;2.70;;
67063;SDS011;58476;48.072;11.970;2022-12-07T08:15:25;8.00;;;3.22;;
67063;SDS011;58476;48.072;11.970;2022-12-07T08:17:51;7.53;;;3.22;;
67063;SDS011;58476;48.072;11.970;2022-12-07T08:20:17;13.45;;;4.30;;
67063;SDS011;58476;48.072;11.970;2022-12-07T08:22:42;14.18;;;3.45;;
67063;SDS011;58476;48.072;11.970;2022-12-07T08:25:07;18.70;;;3.42;;
67063;SDS011;58476;48.072;11.970;2022-12-07T08:27:33;11.25;;;3.47;;
67063;SDS011;58476;48.072;11.970;2022-12-07T08:29:58;13.50;;;3.20;;
67063;SDS011;58476;48.072;11.970;2022-12-07T08:32:23;12.73;;;3.30;;
67063;SDS011;58476;48.072;11.970;2022-12-07T08:34:49;8.98;;;3.30;;
67063;SDS011;58476;48.072;11.970;2022-12-07T08:37:14;10.05;;;3.70;;
67063;SDS011;58476;48.072;11.970;2022-12-07T08:39:40;8.27;;;3.40;;
67063;SDS011;58476;48.072;11.970;2022-12-07T08:42:05;12.85;;;3.35;;
67063;SDS011;58476;48.072;11.970;2022-12-07T08:44:30;10.48;;;2.80;;
67063;SDS011;58476;48.072;11.970;2022-12-07T08:46:56;11.88;;;2.80;;
67063;SDS011;58476;48.072;11.970;2022-12-07T08:49:27;18.45;;;3.10;;
67063;SDS011;58476;48.072;11.970;2022-12-07T08:51:56;22.17;;;3.45;;
67063;SDS011;58476;48.072;11.970;2022-12-07T08:54:22;21.13;;;4.32;;
67063;SDS011;58476;48.072;11.970;2022-12-07T08:56:47;10.80;;;3.08;;
67063;SDS011;58476;48.072;11.970;2022-12-07T08:59:14;12.32;;;3.03;;
67063;SDS011;58476;48.072;11.970;2022-12-07T09:01:42;16.27;;;3.20;;
67063;SDS011;58476;48.072;11.970;2022-12-07T09:04:07;16.60;;;3.60;;
67063;SDS011;58476;48.072;11.970;2022-12-07T09:06:33;15.50;;;3.50;;
67063;SDS011;58476;48.072;11.970;2022-12-07T09:08:59;13.85;;;3.28;;
67063;SDS011;58476;48.072;11.970;2022-12-07T09:11:26;20.20;;;4.32;;
67063;SDS011;58476;48.072;11.970;2022-12-07T09:13:52;22.65;;;3.67;;
67063;SDS011;58476;48.072;11.970;2022-12-07T09:16:17;18.10;;;3.10;;
67063;SDS011;58476;48.072;11.970;2022-12-07T09:18:42;17.52;;;3.85;;
67063;SDS011;58476;48.072;11.970;2022-12-07T09:21:08;11.13;;;3.10;;
67063;SDS011;58476;48.072;11.970;2022-12-07T09:23:34;14.82;;;3.88;;
67063;SDS011;58476;48.072;11.970;2022-12-07T09:26:00;9.50;;;3.10;;
67063;SDS011;58476;48.072;11.970;2022-12-07T09:28:25;10.23;;;2.85;;
67063;SDS011;58476;48.072;11.970;2022-12-07T09:30:51;11.85;;;3.33;;
67063;SDS011;58476;48.072;11.970;2022-12-07T09:33:16;8.30;;;2.58;;
67063;SDS011;58476;48.072;11.970;2022-12-07T09:35:45;7.40;;;2.88;;
67063;SDS011;58476;48.072;11.970;2022-12-07T09:38:11;8.63;;;2.60;;
67063;SDS011;58476;48.072;11.970;2022-12-07T09:40:37;19.48;;;3.38;;
67063;SDS011;58476;48.072;11.970;2022-12-07T09:43:02;11.45;;;2.70;;
67063;SDS011;58476;48.072;11.970;2022-12-07T09:45:32;10.43;;;3.20;;
67063;SDS011;58476;48.072;11.970;2022-12-07T09:48:00;8.88;;;2.75;;
67063;SDS011;58476;48.072;11.970;2022-12-07T09:50:28;10.73;;;3.28;;
67063;SDS011;58476;48.072;11.970;2022-12-07T09:52:55;5.85;;;2.40;;
67063;SDS011;58476;48.072;11.970;2022-12-07T09:55:30;11.95;;;2.70;;
67063;SDS011;58476;48.072;11.970;2022-12-07T09:57:56;14.82;;;2.83;;
67063;SDS011;58476;48.072;11.970;2022-12-07T10:00:23;6.68;;;2.40;;
67063;SDS011;58476;48.072;11.970;2022-12-07T10:02:51;8.77;;;2.60;;
67063;SDS011;58476;48.072;11.970;2022-12-07T10:05:22;7.07;;;2.30;;
67063;SDS011;58476;48.072;11.970;2022-12-07T10:07:51;9.45;;;2.65;;
67063;SDS011;58476;48.072;11.970;2022-12-07T10:10:23;7.03;;;2.30;;
67063;SDS011;58476;48.072;11.970;2022-12-07T10:13:01;9.27;;;2.70;;
67063;SDS011;58476;48.072;11.970;2022-12-07T10:15:48;5.97;;;2.28;;
67063;SDS011;58476;48.072;11.970;2022-12-07T10:21:03;8.52;;;2.70;;
67063;SDS011;58476;48.072;11.970;2022-12-07T10:23:28;7.75;;;2.67;;
67063;SDS011;58476;48.072;11.970;2022-12-07T10:25:54;6.78;;;2.50;;
67063;SDS011;58476;48.072;11.970;2022-12-07T10:28:19;7.70;;;2.20;;
67063;SDS011;58476;48.072;11.970;2022-12-07T10:31:01;12.02;;;3.60;;
67063;SDS011;58476;48.072;11.970;2022-12-07T10:39:14;3.75;;;2.10;;
67063;SDS011;58476;48.072;11.970;2022-12-07T10:41:58;8.02;;;3.50;;
67063;SDS011;58476;48.072;11.970;2022-12-07T10:44:29;3.80;;;2.30;;
67063;SDS011;58476;48.072;11.970;2022-12-07T10:46:59;9.77;;;3.83;;
67063;SDS011;58476;48.072;11.970;2022-12-07T10:55:56;6.45;;;2.47;;
67063;SDS011;58476;48.072;11.970;2022-12-07T11:17:33;6.43;;;2.58;;
67063;SDS011;58476;48.072;11.970;2022-12-07T11:20:17;5.38;;;2.42;;
67063;SDS011;58476;48.072;11.970;2022-12-07T11:28:03;5.47;;;2.20;;
67063;SDS011;58476;48.072;11.970;2022-12-07T11:41:47;3.20;;;2.20;;
67063;SDS011;58476;48.072;11.970;2022-12-07T11:47:08;5.47;;;2.50;;
67063;SDS011;58476;48.072;11.970;2022-12-07T11:49:47;6.45;;;2.55;;
67063;SDS011;58476;48.072;11.970;2022-12-07T11:52:53;5.50;;;2.40;;
67063;SDS011;58476;48.072;11.970;2022-12-07T11:55:29;4.13;;;2.13;;
67063;SDS011;58476;48.072;11.970;2022-12-07T11:58:04;5.05;;;2.30;;
67063;SDS011;58476;48.072;11.970;2022-12-07T12:03:45;7.85;;;2.28;;
67063;SDS011;58476;48.072;11.970;2022-12-07T12:06:12;3.58;;;2.20;;
67063;SDS011;58476;48.072;11.970;2022-12-07T12:16:48;6.63;;;2.60;;
67063;SDS011;58476;48.072;11.970;2022-12-07T12:19:34;3.00;;;2.50;;
67063;SDS011;58476;48.072;11.970;2022-12-07T12:22:15;6.88;;;2.85;;
67063;SDS011;58476;48.072;11.970;2022-12-07T12:24:43;5.75;;;2.40;;
67063;SDS011;58476;48.072;11.970;2022-12-07T12:27:30;8.52;;;2.42;;
67063;SDS011;58476;48.072;11.970;2022-12-07T12:30:07;4.25;;;2.25;;
67063;SDS011;58476;48.072;11.970;2022-12-07T12:32:49;5.30;;;2.42;;
67063;SDS011;58476;48.072;11.970;2022-12-07T12:37:44;5.53;;;2.58;;
67063;SDS011;58476;48.072;11.970;2022-12-07T12:42:45;4.03;;;2.35;;
67063;SDS011;58476;48.072;11.970;2022-12-07T12:45:32;4.35;;;2.55;;
67063;SDS011;58476;48.072;11.970;2022-12-07T12:48:00;8.85;;;2.92;;
67063;SDS011;58476;48.072;11.970;2022-12-07T12:52:57;3.53;;;2.25;;
67063;SDS011;58476;48.072;11.970;2022-12-07T12:55:29;5.60;;;2.53;;
67063;SDS011;58476;48.072;11.970;2022-12-07T13:00:43;4.25;;;2.53;;
67063;SDS011;58476;48.072;11.970;2022-12-07T13:03:29;3.25;;;2.30;;
67063;SDS011;58476;48.072;11.970;2022-12-07T13:08:49;4.88;;;3.63;;
67063;SDS011;58476;48.072;11.970;2022-12-07T13:11:18;6.25;;;3.50;;
67063;SDS011;58476;48.072;11.970;2022-12-07T13:13:52;10.18;;;3.92;;
67063;SDS011;58476;48.072;11.970;2022-12-07T13:18:43;7.82;;;3.67;;
67063;SDS011;58476;48.072;11.970;2022-12-07T13:26:09;9.10;;;4.40;;
67063;SDS011;58476;48.072;11.970;2022-12-07T13:28:38;11.10;;;4.30;;
67063;SDS011;58476;48.072;11.970;2022-12-07T13:33:39;12.07;;;3.65;;
67063;SDS011;58476;48.072;11.970;2022-12-07T13:36:14;7.10;;;3.80;;
67063;SDS011;58476;48.072;11.970;2022-12-07T13:38:52;11.23;;;3.90;;
67063;SDS011;58476;48.072;11.970;2022-12-07T13:41:41;10.98;;;3.90;;
67063;SDS011;58476;48.072;11.970;2022-12-07T13:49:19;6.82;;;3.53;;
67063;SDS011;58476;48.072;11.970;2022-12-07T13:51:55;8.63;;;3.30;;
67063;SDS011;58476;48.072;11.970;2022-12-07T13:57:22;9.23;;;3.80;;
67063;SDS011;58476;48.072;11.970;2022-12-07T13:59:50;9.88;;;3.55;;
67063;SDS011;58476;48.072;11.970;2022-12-07T14:02:20;6.88;;;3.55;;
67063;SDS011;58476;48.072;11.970;2022-12-07T14:04:48;7.95;;;3.47;;
67063;SDS011;58476;48.072;11.970;2022-12-07T14:07:19;8.52;;;3.33;;
67063;SDS011;58476;48.072;11.970;2022-12-07T14:09:59;11.20;;;4.65;;
67063;SDS011;58476;48.072;11.970;2022-12-07T14:12:26;9.70;;;3.38;;
67063;SDS011;58476;48.072;11.970;2022-12-07T14:14:53;17.08;;;3.80;;
67063;SDS011;58476;48.072;11.970;2022-12-07T14:17:21;8.95;;;3.33;;
67063;SDS011;58476;48.072;11.970;2022-12-07T14:19:53;6.20;;;3.53;;
67063;SDS011;58476;48.072;11.970;2022-12-07T14:22:20;6.57;;;2.92;;
67063;SDS011;58476;48.072;11.970;2022-12-07T14:24:48;4.75;;;2.90;;
67063;SDS011;58476;48.072;11.970;2022-12-07T14:27:16;9.27;;;3.08;;
67063;SDS011;58476;48.072;11.970;2022-12-07T14:29:43;5.70;;;2.95;;
67063;SDS011;58476;48.072;11.970;2022-12-07T14:32:18;8.35;;;2.90;;
67063;SDS011;58476;48.072;11.970;2022-12-07T14:34:53;12.95;;;2.78;;
67063;SDS011;58476;48.072;11.970;2022-12-07T14:37:33;5.15;;;2.78;;
67063;SDS011;58476;48.072;11.970;2022-12-07T14:39:58;3.58;;;2.78;;
67063;SDS011;58476;48.072;11.970;2022-12-07T14:42:26;6.25;;;2.90;;
67063;SDS011;58476;48.072;11.970;2022-12-07T14:44:53;6.55;;;2.80;;
67063;SDS011;58476;48.072;11.970;2022-12-07T14:47:19;5.10;;;3.00;;
67063;SDS011;58476;48.072;11.970;2022-12-07T14:49:44;4.88;;;3.20;;
67063;SDS011;58476;48.072;11.970;2022-12-07T14:52:13;4.93;;;2.63;;
67063;SDS011;58476;48.072;11.970;2022-12-07T14:54:42;6.05;;;2.90;;
67063;SDS011;58476;48.072;11.970;2022-12-07T14:57:08;5.43;;;2.72;;
67063;SDS011;58476;48.072;11.970;2022-12-07T14:59:34;9.30;;;2.85;;
67063;SDS011;58476;48.072;11.970;2022-12-07T15:02:00;9.35;;;3.08;;
67063;SDS011;58476;48.072;11.970;2022-12-07T15:04:25;7.38;;;3.75;;
67063;SDS011;58476;48.072;11.970;2022-12-07T15:06:54;6.13;;;3.00;;
67063;SDS011;58476;48.072;11.970;2022-12-07T15:09:25;7.38;;;2.78;;
67063;SDS011;58476;48.072;11.970;2022-12-07T15:11:50;3.13;;;2.40;;
67063;SDS011;58476;48.072;11.970;2022-12-07T15:14:15;7.40;;;3.30;;
67063;SDS011;58476;48.072;11.970;2022-12-07T15:16:41;5.35;;;2.95;;
67063;SDS011;58476;48.072;11.970;2022-12-07T15:19:15;6.05;;;2.50;;
67063;SDS011;58476;48.072;11.970;2022-12-07T15:21:45;4.53;;;2.88;;
67063;SDS011;58476;48.072;11.970;2022-12-07T15:24:11;7.50;;;3.15;;
67063;SDS011;58476;48.072;11.970;2022-12-07T15:26:37;6.78;;;2.60;;
67063;SDS011;58476;48.072;11.970;2022-12-07T15:29:03;5.93;;;2.50;;
67063;SDS011;58476;48.072;11.970;2022-12-07T15:31:29;6.53;;;2.90;;
67063;SDS011;58476;48.072;11.970;2022-12-07T15:33:54;5.10;;;2.60;;
67063;SDS011;58476;48.072;11.970;2022-12-07T15:36:23;4.82;;;2.83;;
67063;SDS011;58476;48.072;11.970;2022-12-07T15:38:51;5.55;;;2.47;;
67063;SDS011;58476;48.072;11.970;2022-12-07T15:41:16;3.63;;;2.55;;
67063;SDS011;58476;48.072;11.970;2022-12-07T15:43:42;3.03;;;2.33;;
67063;SDS011;58476;48.072;11.970;2022-12-07T15:46:08;3.38;;;2.30;;
67063;SDS011;58476;48.072;11.970;2022-12-07T15:48:33;5.53;;;2.60;;
67063;SDS011;58476;48.072;11.970;2022-12-07T15:51:05;6.78;;;2.97;;
67063;SDS011;58476;48.072;11.970;2022-12-07T15:53:32;10.35;;;2.65;;
67063;SDS011;58476;48.072;11.970;2022-12-07T15:55:58;4.85;;;2.45;;
67063;SDS011;58476;48.072;11.970;2022-12-07T15:58:23;4.13;;;2.40;;
67063;SDS011;58476;48.072;11.970;2022-12-07T16:00:49;3.92;;;2.53;;
67063;SDS011;58476;48.072;11.970;2022-12-07T16:03:14;11.65;;;3.38;;
67063;SDS011;58476;48.072;11.970;2022-12-07T16:05:40;3.78;;;2.33;;
67063;SDS011;58476;48.072;11.970;2022-12-07T16:08:05;8.30;;;2.60;;
67063;SDS011;58476;48.072;11.970;2022-12-07T16:10:30;4.40;;;2.65;;
67063;SDS011;58476;48.072;11.970;2022-12-07T16:12:56;4.50;;;2.40;;
67063;SDS011;58476;48.072;11.970;2022-12-07T16:15:21;3.50;;;2.42;;
67063;SDS011;58476;48.072;11.970;2022-12-07T16:17:47;3.33;;;2.40;;
67063;SDS011;58476;48.072;11.970;2022-12-07T16:20:12;5.53;;;2.47;;
67063;SDS011;58476;48.072;11.970;2022-12-07T16:22:38;4.75;;;2.78;;
67063;SDS011;58476;48.072;11.970;2022-12-07T16:25:03;3.85;;;2.50;;
67063;SDS011;58476;48.072;11.970;2022-12-07T16:27:29;8.43;;;2.70;;
67063;SDS011;58476;48.072;11.970;2022-12-07T16:29:54;6.60;;;2.60;;
67063;SDS011;58476;48.072;11.970;2022-12-07T16:32:19;9.75;;;2.90;;
67063;SDS011;58476;48.072;11.970;2022-12-07T16:34:45;4.00;;;2.40;;
67063;SDS011;58476;48.072;11.970;2022-12-07T16:37:10;8.38;;;2.58;;
67063;SDS011;58476;48.072;11.970;2022-12-07T16:39:36;7.90;;;2.70;;
67063;SDS011;58476;48.072;11.970;2022-12-07T16:42:01;7.22;;;2.45;;
67063;SDS011;58476;48.072;11.970;2022-12-07T16:44:27;9.40;;;2.50;;
67063;SDS011;58476;48.072;11.970;2022-12-07T16:46:53;11.77;;;2.58;;
67063;SDS011;58476;48.072;11.970;2022-12-07T16:49:18;6.68;;;2.58;;
67063;SDS011;58476;48.072;11.970;2022-12-07T16:51:44;8.55;;;2.95;;
67063;SDS011;58476;48.072;11.970;2022-12-07T16:54:10;20.85;;;9.68;;